sensor_id;sensor_type;location;lat;lon;timestamp;temperature;humidity
21830;DHT22;11077;50.264;6.798;2022-12-18T00:01:15;-6.00;99.90
21830;DHT22;11077;50.264;6.798;2022-12-18T00:03:43;-6.10;99.90
21830;DHT22;11077;50.264;6.798;2022-12-18T00:06:11;-6.10;99.90
21830;DHT22;11077;50.264;6.798;2022-12-18T00:08:39;-6.00;99.90
21830;DHT22;11077;50.264;6.798;2022-12-18T00:11:07;-6.10;99.90
21830;DHT22;11077;50.264;6.798;2022-12-18T00:13:36;-6.10;99.90
21830;DHT22;11077;50.264;6.798;2022-12-18T00:16:05;-6.20;99.90
21830;DHT22;11077;50.264;6.798;2022-12-18T00:18:33;-6.20;99.90
21830;DHT22;11077;50.264;6.798;2022-12-18T00:21:02;-6.20;99.90
21830;DHT22;11077;50.264;6.798;2022-12-18T00:23:31;-6.20;99.90
21830;DHT22;11077;50.264;6.798;2022-12-18T00:25:59;-6.20;99.90
21830;DHT22;11077;50.264;6.798;2022-12-18T00:28:27;-6.20;99.90
21830;DHT22;11077;50.264;6.798;2022-12-18T00:31:01;-6.20;99.90
21830;DHT22;11077;50.264;6.798;2022-12-18T00:33:28;-6.20;99.90
21830;DHT22;11077;50.264;6.798;2022-12-18T00:36:00;-6.20;99.90
21830;DHT22;11077;50.264;6.798;2022-12-18T00:38:27;-6.20;99.90
21830;DHT22;11077;50.264;6.798;2022-12-18T00:40:55;-6.20;99.90
21830;DHT22;11077;50.264;6.798;2022-12-18T00:43:22;-6.20;99.90
21830;DHT22;11077;50.264;6.798;2022-12-18T00:45:48;-6.20;99.90
21830;DHT22;11077;50.264;6.798;2022-12-18T00:48:17;-6.10;99.90
21830;DHT22;11077;50.264;6.798;2022-12-18T00:50:44;-6.10;99.90
21830;DHT22;11077;50.264;6.798;2022-12-18T00:53:11;-6.00;99.90
21830;DHT22;11077;50.264;6.798;2022-12-18T00:55:39;-5.90;99.90
21830;DHT22;11077;50.264;6.798;2022-12-18T00:58:06;-5.90;99.90
21830;DHT22;11077;50.264;6.798;2022-12-18T01:00:35;-5.80;99.90
21830;DHT22;11077;50.264;6.798;2022-12-18T01:03:04;-5.80;99.90
21830;DHT22;11077;50.264;6.798;2022-12-18T01:05:33;-5.80;99.90
21830;DHT22;11077;50.264;6.798;2022-12-18T01:08:00;-5.80;99.90
21830;DHT22;11077;50.264;6.798;2022-12-18T01:10:27;-5.70;99.90
21830;DHT22;11077;50.264;6.798;2022-12-18T01:12:57;-5.70;99.90
21830;DHT22;11077;50.264;6.798;2022-12-18T01:15:24;-5.70;99.90
21830;DHT22;11077;50.264;6.798;2022-12-18T01:17:52;-5.70;99.90
21830;DHT22;11077;50.264;6.798;2022-12-18T01:20:20;-5.60;99.90
21830;DHT22;11077;50.264;6.798;2022-12-18T01:22:48;-5.60;99.90
21830;DHT22;11077;50.264;6.798;2022-12-18T01:25:15;-5.60;99.90
21830;DHT22;11077;50.264;6.798;2022-12-18T01:27:43;-5.60;99.90
21830;DHT22;11077;50.264;6.798;2022-12-18T01:30:11;-5.50;99.90
21830;DHT22;11077;50.264;6.798;2022-12-18T01:32:38;-5.50;99.90
21830;DHT22;11077;50.264;6.798;2022-12-18T01:35:06;-5.60;99.90
21830;DHT22;11077;50.264;6.798;2022-12-18T01:37:33;-5.60;99.90
21830;DHT22;11077;50.264;6.798;2022-12-18T01:40:02;-5.60;99.90
21830;DHT22;11077;50.264;6.798;2022-12-18T01:42:30;-5.60;99.90
21830;DHT22;11077;50.264;6.798;2022-12-18T01:45:00;-5.40;99.90
21830;DHT22;11077;50.264;6.798;2022-12-18T01:47:31;-5.60;99.90
21830;DHT22;11077;50.264;6.798;2022-12-18T01:50:04;-5.60;99.90
21830;DHT22;11077;50.264;6.798;2022-12-18T01:52:33;-5.60;99.90
21830;DHT22;11077;50.264;6.798;2022-12-18T01:55:03;-5.60;99.90
21830;DHT22;11077;50.264;6.798;2022-12-18T01:57:32;-5.60;99.90
21830;DHT22;11077;50.264;6.798;2022-12-18T02:00:02;-5.60;99.90
21830;DHT22;11077;50.264;6.798;2022-12-18T02:02:39;-5.50;99.90
21830;DHT22;11077;50.264;6.798;2022-12-18T02:05:08;-5.50;99.90
21830;DHT22;11077;50.264;6.798;2022-12-18T02:07:44;-5.60;99.90
21830;DHT22;11077;50.264;6.798;2022-12-18T02:10:21;-5.50;99.90
21830;DHT22;11077;50.264;6.798;2022-12-18T02:12:56;-5.50;99.90
21830;DHT22;11077;50.264;6.798;2022-12-18T02:15:34;-5.50;99.90
21830;DHT22;11077;50.264;6.798;2022-12-18T02:18:06;-5.40;99.90
21830;DHT22;11077;50.264;6.798;2022-12-18T02:20:36;-5.40;99.90
21830;DHT22;11077;50.264;6.798;2022-12-18T02:23:16;-5.40;99.90
21830;DHT22;11077;50.264;6.798;2022-12-18T02:26:06;-5.40;99.90
21830;DHT22;11077;50.264;6.798;2022-12-18T02:28:40;-5.40;99.90
21830;DHT22;11077;50.264;6.798;2022-12-18T02:31:13;-5.30;99.90
21830;DHT22;11077;50.264;6.798;2022-12-18T02:33:43;-5.30;99.90
21830;DHT22;11077;50.264;6.798;2022-12-18T02:36:13;-5.30;99.90
21830;DHT22;11077;50.264;6.798;2022-12-18T02:38:42;-5.30;99.90
21830;DHT22;11077;50.264;6.798;2022-12-18T02:41:16;-5.20;99.90
21830;DHT22;11077;50.264;6.798;2022-12-18T02:43:56;-5.20;99.90
21830;DHT22;11077;50.264;6.798;2022-12-18T02:46:30;-5.20;99.90
21830;DHT22;11077;50.264;6.798;2022-12-18T02:49:12;-5.20;99.90
21830;DHT22;11077;50.264;6.798;2022-12-18T02:51:50;-5.20;99.90
21830;DHT22;11077;50.264;6.798;2022-12-18T02:54:28;-5.30;99.90
21830;DHT22;11077;50.264;6.798;2022-12-18T02:57:09;-5.20;99.90
21830;DHT22;11077;50.264;6.798;2022-12-18T02:59:44;-5.30;99.90
21830;DHT22;11077;50.264;6.798;2022-12-18T03:02:20;-5.30;99.90
21830;DHT22;11077;50.264;6.798;2022-12-18T03:04:53;-5.30;99.90
21830;DHT22;11077;50.264;6.798;2022-12-18T03:07:27;-5.30;99.90
21830;DHT22;11077;50.264;6.798;2022-12-18T03:09:57;-5.40;99.90
21830;DHT22;11077;50.264;6.798;2022-12-18T03:12:30;-5.40;99.90
21830;DHT22;11077;50.264;6.798;2022-12-18T03:15:04;-5.40;99.90
21830;DHT22;11077;50.264;6.798;2022-12-18T03:17:36;-5.40;99.90
21830;DHT22;11077;50.264;6.798;2022-12-18T03:20:10;-5.40;99.90
21830;DHT22;11077;50.264;6.798;2022-12-18T03:22:40;-5.40;99.90
21830;DHT22;11077;50.264;6.798;2022-12-18T03:25:13;-5.40;99.90
21830;DHT22;11077;50.264;6.798;2022-12-18T03:27:47;-5.40;99.90
21830;DHT22;11077;50.264;6.798;2022-12-18T03:30:16;-5.40;99.90
21830;DHT22;11077;50.264;6.798;2022-12-18T03:32:47;-5.40;99.90
21830;DHT22;11077;50.264;6.798;2022-12-18T03:35:19;-5.40;99.90
21830;DHT22;11077;50.264;6.798;2022-12-18T03:37:47;-5.40;99.90
21830;DHT22;11077;50.264;6.798;2022-12-18T03:40:14;-5.40;99.90
21830;DHT22;11077;50.264;6.798;2022-12-18T03:42:48;-5.50;99.90
21830;DHT22;11077;50.264;6.798;2022-12-18T03:45:22;-5.40;99.90
21830;DHT22;11077;50.264;6.798;2022-12-18T03:47:58;-5.50;99.90
21830;DHT22;11077;50.264;6.798;2022-12-18T03:50:38;-5.50;99.90
21830;DHT22;11077;50.264;6.798;2022-12-18T03:53:15;-5.50;99.90
21830;DHT22;11077;50.264;6.798;2022-12-18T03:55:48;-5.50;99.90
21830;DHT22;11077;50.264;6.798;2022-12-18T03:58:20;-5.50;99.90
21830;DHT22;11077;50.264;6.798;2022-12-18T04:01:13;-5.50;99.90
21830;DHT22;11077;50.264;6.798;2022-12-18T04:03:43;-5.50;99.90
21830;DHT22;11077;50.264;6.798;2022-12-18T04:06:12;-5.50;99.90
21830;DHT22;11077;50.264;6.798;2022-12-18T04:08:41;-5.50;99.90
21830;DHT22;11077;50.264;6.798;2022-12-18T04:11:12;-5.50;99.90
21830;DHT22;11077;50.264;6.798;2022-12-18T04:13:42;-5.60;99.90
21830;DHT22;11077;50.264;6.798;2022-12-18T04:16:18;-5.50;99.90
21830;DHT22;11077;50.264;6.798;2022-12-18T04:18:48;-5.50;99.90
21830;DHT22;11077;50.264;6.798;2022-12-18T04:21:17;-5.50;99.90
21830;DHT22;11077;50.264;6.798;2022-12-18T04:23:46;-5.50;99.90
21830;DHT22;11077;50.264;6.798;2022-12-18T04:26:13;-5.50;99.90
21830;DHT22;11077;50.264;6.798;2022-12-18T04:28:51;-5.50;99.90
21830;DHT22;11077;50.264;6.798;2022-12-18T04:31:19;-5.50;99.90
21830;DHT22;11077;50.264;6.798;2022-12-18T04:33:46;-5.40;99.90
21830;DHT22;11077;50.264;6.798;2022-12-18T04:36:14;-5.40;99.90
21830;DHT22;11077;50.264;6.798;2022-12-18T04:38:42;-5.40;99.90
21830;DHT22;11077;50.264;6.798;2022-12-18T04:41:13;-5.40;99.90
21830;DHT22;11077;50.264;6.798;2022-12-18T04:43:42;-5.40;99.90
21830;DHT22;11077;50.264;6.798;2022-12-18T04:46:10;-5.30;99.90
21830;DHT22;11077;50.264;6.798;2022-12-18T04:48:37;-5.30;99.90
21830;DHT22;11077;50.264;6.798;2022-12-18T04:51:05;-5.40;99.90
21830;DHT22;11077;50.264;6.798;2022-12-18T04:53:33;-5.30;99.90
21830;DHT22;11077;50.264;6.798;2022-12-18T04:56:05;-5.40;99.90
21830;DHT22;11077;50.264;6.798;2022-12-18T04:58:32;-5.40;99.90
21830;DHT22;11077;50.264;6.798;2022-12-18T05:01:00;-5.30;99.90
21830;DHT22;11077;50.264;6.798;2022-12-18T05:03:30;-5.40;99.90
21830;DHT22;11077;50.264;6.798;2022-12-18T05:05:57;-5.40;99.90
21830;DHT22;11077;50.264;6.798;2022-12-18T05:08:24;-5.30;99.90
21830;DHT22;11077;50.264;6.798;2022-12-18T05:10:58;-5.30;99.90
21830;DHT22;11077;50.264;6.798;2022-12-18T05:13:26;-5.30;99.90
21830;DHT22;11077;50.264;6.798;2022-12-18T05:15:53;-5.30;99.90
21830;DHT22;11077;50.264;6.798;2022-12-18T05:18:21;-5.30;99.90
21830;DHT22;11077;50.264;6.798;2022-12-18T05:20:49;-5.30;99.90
21830;DHT22;11077;50.264;6.798;2022-12-18T05:23:16;-5.30;99.90
21830;DHT22;11077;50.264;6.798;2022-12-18T05:25:47;-5.40;99.90
21830;DHT22;11077;50.264;6.798;2022-12-18T05:28:17;-5.40;99.90
21830;DHT22;11077;50.264;6.798;2022-12-18T05:30:48;-5.40;99.90
21830;DHT22;11077;50.264;6.798;2022-12-18T05:33:15;-5.40;99.90
21830;DHT22;11077;50.264;6.798;2022-12-18T05:35:43;-5.30;99.90
21830;DHT22;11077;50.264;6.798;2022-12-18T05:38:11;-5.40;99.90
21830;DHT22;11077;50.264;6.798;2022-12-18T05:40:41;-5.40;99.90
21830;DHT22;11077;50.264;6.798;2022-12-18T05:43:09;-5.40;99.90
21830;DHT22;11077;50.264;6.798;2022-12-18T05:45:37;-5.40;99.90
21830;DHT22;11077;50.264;6.798;2022-12-18T05:48:05;-5.40;99.90
21830;DHT22;11077;50.264;6.798;2022-12-18T05:50:34;-5.50;99.90
21830;DHT22;11077;50.264;6.798;2022-12-18T05:53:01;-5.50;99.90
21830;DHT22;11077;50.264;6.798;2022-12-18T05:55:32;-5.50;99.90
21830;DHT22;11077;50.264;6.798;2022-12-18T05:58:00;-5.60;99.90
21830;DHT22;11077;50.264;6.798;2022-12-18T06:00:27;-5.50;99.90
21830;DHT22;11077;50.264;6.798;2022-12-18T06:02:54;-5.60;99.90
21830;DHT22;11077;50.264;6.798;2022-12-18T06:05:21;-5.60;99.90
21830;DHT22;11077;50.264;6.798;2022-12-18T06:07:49;-5.70;99.90
21830;DHT22;11077;50.264;6.798;2022-12-18T06:10:16;-5.70;99.90
21830;DHT22;11077;50.264;6.798;2022-12-18T06:12:45;-5.70;99.90
21830;DHT22;11077;50.264;6.798;2022-12-18T06:15:12;-5.70;99.90
21830;DHT22;11077;50.264;6.798;2022-12-18T06:17:39;-5.70;99.90
21830;DHT22;11077;50.264;6.798;2022-12-18T06:20:07;-5.70;99.90
21830;DHT22;11077;50.264;6.798;2022-12-18T06:22:34;-5.70;99.90
21830;DHT22;11077;50.264;6.798;2022-12-18T06:25:01;-5.70;99.90
21830;DHT22;11077;50.264;6.798;2022-12-18T06:27:28;-5.70;99.90
21830;DHT22;11077;50.264;6.798;2022-12-18T06:29:57;-5.80;99.90
21830;DHT22;11077;50.264;6.798;2022-12-18T06:32:24;-5.80;99.90
21830;DHT22;11077;50.264;6.798;2022-12-18T06:34:51;-5.80;99.90
21830;DHT22;11077;50.264;6.798;2022-12-18T06:37:19;-5.80;99.90
21830;DHT22;11077;50.264;6.798;2022-12-18T06:39:46;-5.80;99.90
21830;DHT22;11077;50.264;6.798;2022-12-18T06:42:13;-5.80;99.90
21830;DHT22;11077;50.264;6.798;2022-12-18T06:44:40;-5.70;99.90
21830;DHT22;11077;50.264;6.798;2022-12-18T06:47:09;-5.70;99.90
21830;DHT22;11077;50.264;6.798;2022-12-18T06:49:36;-5.70;99.90
21830;DHT22;11077;50.264;6.798;2022-12-18T06:52:03;-5.70;99.90
21830;DHT22;11077;50.264;6.798;2022-12-18T06:54:30;-5.80;99.90
21830;DHT22;11077;50.264;6.798;2022-12-18T06:56:58;-5.80;99.90
21830;DHT22;11077;50.264;6.798;2022-12-18T06:59:25;-5.80;99.90
21830;DHT22;11077;50.264;6.798;2022-12-18T07:01:52;-5.80;99.90
21830;DHT22;11077;50.264;6.798;2022-12-18T07:04:20;-5.80;99.90
21830;DHT22;11077;50.264;6.798;2022-12-18T07:06:47;-5.80;99.90
21830;DHT22;11077;50.264;6.798;2022-12-18T07:09:15;-5.70;99.90
21830;DHT22;11077;50.264;6.798;2022-12-18T07:11:42;-5.70;99.90
21830;DHT22;11077;50.264;6.798;2022-12-18T07:14:09;-5.60;99.90
21830;DHT22;11077;50.264;6.798;2022-12-18T07:16:36;-5.70;99.90
21830;DHT22;11077;50.264;6.798;2022-12-18T07:19:03;-5.70;99.90
21830;DHT22;11077;50.264;6.798;2022-12-18T07:21:32;-5.60;99.90
21830;DHT22;11077;50.264;6.798;2022-12-18T07:23:59;-5.60;99.90
21830;DHT22;11077;50.264;6.798;2022-12-18T07:26:27;-5.50;99.90
21830;DHT22;11077;50.264;6.798;2022-12-18T07:28:55;-5.50;99.90
21830;DHT22;11077;50.264;6.798;2022-12-18T07:31:24;-5.50;99.90
21830;DHT22;11077;50.264;6.798;2022-12-18T07:33:52;-5.50;99.90
21830;DHT22;11077;50.264;6.798;2022-12-18T07:36:22;-5.50;99.90
21830;DHT22;11077;50.264;6.798;2022-12-18T07:38:51;-5.50;99.90
21830;DHT22;11077;50.264;6.798;2022-12-18T07:41:19;-5.50;99.90
21830;DHT22;11077;50.264;6.798;2022-12-18T07:43:46;-5.50;99.90
21830;DHT22;11077;50.264;6.798;2022-12-18T07:46:15;-5.50;99.90
21830;DHT22;11077;50.264;6.798;2022-12-18T07:48:42;-5.50;99.90
21830;DHT22;11077;50.264;6.798;2022-12-18T07:51:13;-5.50;99.90
21830;DHT22;11077;50.264;6.798;2022-12-18T07:53:40;-5.50;99.90
21830;DHT22;11077;50.264;6.798;2022-12-18T07:56:11;-5.30;99.90
21830;DHT22;11077;50.264;6.798;2022-12-18T07:58:39;-5.50;99.90
21830;DHT22;11077;50.264;6.798;2022-12-18T08:01:07;-5.50;99.90
21830;DHT22;11077;50.264;6.798;2022-12-18T08:03:35;-5.40;99.90
21830;DHT22;11077;50.264;6.798;2022-12-18T08:06:04;-5.40;99.90
21830;DHT22;11077;50.264;6.798;2022-12-18T08:08:33;-5.40;99.90
21830;DHT22;11077;50.264;6.798;2022-12-18T08:11:00;-5.40;99.90
21830;DHT22;11077;50.264;6.798;2022-12-18T08:13:29;-5.30;99.90
21830;DHT22;11077;50.264;6.798;2022-12-18T08:15:57;-5.20;99.90
21830;DHT22;11077;50.264;6.798;2022-12-18T08:18:24;-5.20;99.90
21830;DHT22;11077;50.264;6.798;2022-12-18T08:20:51;-5.20;99.90
21830;DHT22;11077;50.264;6.798;2022-12-18T08:23:19;-5.10;99.90
21830;DHT22;11077;50.264;6.798;2022-12-18T08:25:46;-5.00;99.90
21830;DHT22;11077;50.264;6.798;2022-12-18T08:28:13;-5.00;99.90
21830;DHT22;11077;50.264;6.798;2022-12-18T08:30:45;-4.90;99.90
21830;DHT22;11077;50.264;6.798;2022-12-18T08:33:12;-4.80;99.90
21830;DHT22;11077;50.264;6.798;2022-12-18T08:35:39;-4.90;99.90
21830;DHT22;11077;50.264;6.798;2022-12-18T08:38:06;-4.90;99.90
21830;DHT22;11077;50.264;6.798;2022-12-18T08:40:34;-4.80;99.90
21830;DHT22;11077;50.264;6.798;2022-12-18T08:43:01;-4.80;99.90
21830;DHT22;11077;50.264;6.798;2022-12-18T08:45:47;-4.70;99.90
21830;DHT22;11077;50.264;6.798;2022-12-18T08:48:14;-4.70;99.90
21830;DHT22;11077;50.264;6.798;2022-12-18T08:50:41;-4.70;99.90
21830;DHT22;11077;50.264;6.798;2022-12-18T08:53:09;-4.50;99.90
21830;DHT22;11077;50.264;6.798;2022-12-18T08:55:36;-4.50;99.90
21830;DHT22;11077;50.264;6.798;2022-12-18T08:58:03;-4.30;99.90
21830;DHT22;11077;50.264;6.798;2022-12-18T09:00:30;-4.10;99.90
21830;DHT22;11077;50.264;6.798;2022-12-18T09:03:02;-4.00;99.90
21830;DHT22;11077;50.264;6.798;2022-12-18T09:05:30;-4.00;99.90
21830;DHT22;11077;50.264;6.798;2022-12-18T09:07:57;-3.90;99.90
21830;DHT22;11077;50.264;6.798;2022-12-18T09:10:24;-3.90;99.90
21830;DHT22;11077;50.264;6.798;2022-12-18T09:12:52;-3.70;99.90
21830;DHT22;11077;50.264;6.798;2022-12-18T09:15:19;-3.80;99.90
21830;DHT22;11077;50.264;6.798;2022-12-18T09:17:46;-3.50;99.90
21830;DHT22;11077;50.264;6.798;2022-12-18T09:20:15;-3.50;99.90
21830;DHT22;11077;50.264;6.798;2022-12-18T09:22:42;-3.50;99.90
21830;DHT22;11077;50.264;6.798;2022-12-18T09:25:09;-3.50;99.90
21830;DHT22;11077;50.264;6.798;2022-12-18T09:27:37;-3.30;99.90
21830;DHT22;11077;50.264;6.798;2022-12-18T09:30:06;-3.30;99.90
21830;DHT22;11077;50.264;6.798;2022-12-18T09:32:33;-3.30;99.90
21830;DHT22;11077;50.264;6.798;2022-12-18T09:35:00;-3.30;99.90
21830;DHT22;11077;50.264;6.798;2022-12-18T09:37:29;-3.20;99.90
21830;DHT22;11077;50.264;6.798;2022-12-18T09:39:57;-3.20;99.90
21830;DHT22;11077;50.264;6.798;2022-12-18T09:42:24;-3.20;99.90
21830;DHT22;11077;50.264;6.798;2022-12-18T09:44:53;-3.20;99.90
21830;DHT22;11077;50.264;6.798;2022-12-18T09:47:24;-3.30;99.90
21830;DHT22;11077;50.264;6.798;2022-12-18T09:49:56;-3.30;99.90
21830;DHT22;11077;50.264;6.798;2022-12-18T09:52:26;-3.40;99.90
21830;DHT22;11077;50.264;6.798;2022-12-18T09:54:59;-3.20;99.90
21830;DHT22;11077;50.264;6.798;2022-12-18T09:57:29;-3.30;99.90
21830;DHT22;11077;50.264;6.798;2022-12-18T10:00:02;-3.40;99.90
21830;DHT22;11077;50.264;6.798;2022-12-18T10:02:37;-3.40;99.90
21830;DHT22;11077;50.264;6.798;2022-12-18T10:05:10;-3.50;99.90
21830;DHT22;11077;50.264;6.798;2022-12-18T10:07:49;-3.50;99.90
21830;DHT22;11077;50.264;6.798;2022-12-18T10:10:30;-3.30;99.90
21830;DHT22;11077;50.264;6.798;2022-12-18T10:13:04;-3.40;99.90
21830;DHT22;11077;50.264;6.798;2022-12-18T10:15:38;-3.40;99.90
21830;DHT22;11077;50.264;6.798;2022-12-18T10:18:17;-3.20;99.90
21830;DHT22;11077;50.264;6.798;2022-12-18T10:20:49;-3.30;99.90
21830;DHT22;11077;50.264;6.798;2022-12-18T10:23:21;-3.20;99.90
21830;DHT22;11077;50.264;6.798;2022-12-18T10:26:01;-3.10;99.90
21830;DHT22;11077;50.264;6.798;2022-12-18T10:28:30;-3.00;99.90
21830;DHT22;11077;50.264;6.798;2022-12-18T10:30:58;-2.90;99.90
21830;DHT22;11077;50.264;6.798;2022-12-18T10:33:29;-2.80;99.90
21830;DHT22;11077;50.264;6.798;2022-12-18T10:35:57;-2.70;99.90
21830;DHT22;11077;50.264;6.798;2022-12-18T10:38:27;-2.70;99.90
21830;DHT22;11077;50.264;6.798;2022-12-18T10:40:58;-2.70;99.90
21830;DHT22;11077;50.264;6.798;2022-12-18T10:43:27;-2.80;99.90
21830;DHT22;11077;50.264;6.798;2022-12-18T10:46:01;-2.70;99.90
21830;DHT22;11077;50.264;6.798;2022-12-18T10:48:30;-2.60;99.90
21830;DHT22;11077;50.264;6.798;2022-12-18T10:50:58;-2.70;99.90
21830;DHT22;11077;50.264;6.798;2022-12-18T10:53:28;-2.70;99.90
21830;DHT22;11077;50.264;6.798;2022-12-18T10:55:58;-2.60;99.90
21830;DHT22;11077;50.264;6.798;2022-12-18T10:58:30;-2.60;99.90
21830;DHT22;11077;50.264;6.798;2022-12-18T11:01:10;-2.70;99.90
21830;DHT22;11077;50.264;6.798;2022-12-18T11:03:38;-2.70;99.90
21830;DHT22;11077;50.264;6.798;2022-12-18T11:06:08;-2.70;99.90
21830;DHT22;11077;50.264;6.798;2022-12-18T11:08:36;-2.80;99.90
21830;DHT22;11077;50.264;6.798;2022-12-18T11:11:14;-2.70;99.90
21830;DHT22;11077;50.264;6.798;2022-12-18T11:14:01;-2.80;99.90
21830;DHT22;11077;50.264;6.798;2022-12-18T11:16:32;-2.80;99.90
21830;DHT22;11077;50.264;6.798;2022-12-18T11:19:18;-2.90;99.90
21830;DHT22;11077;50.264;6.798;2022-12-18T11:21:46;-2.80;99.90
21830;DHT22;11077;50.264;6.798;2022-12-18T11:24:20;-2.80;99.90
21830;DHT22;11077;50.264;6.798;2022-12-18T11:26:49;-2.70;99.90
21830;DHT22;11077;50.264;6.798;2022-12-18T11:29:20;-2.70;99.90
21830;DHT22;11077;50.264;6.798;2022-12-18T11:31:50;-2.70;99.90
21830;DHT22;11077;50.264;6.798;2022-12-18T11:34:24;-2.70;99.90
21830;DHT22;11077;50.264;6.798;2022-12-18T11:36:55;-2.80;99.90
21830;DHT22;11077;50.264;6.798;2022-12-18T11:39:28;-2.70;99.90
21830;DHT22;11077;50.264;6.798;2022-12-18T11:42:03;-2.70;99.90
21830;DHT22;11077;50.264;6.798;2022-12-18T11:44:44;-2.70;99.90
21830;DHT22;11077;50.264;6.798;2022-12-18T11:47:21;-2.70;99.90
21830;DHT22;11077;50.264;6.798;2022-12-18T11:49:52;-2.70;99.90
21830;DHT22;11077;50.264;6.798;2022-12-18T11:52:22;-2.70;99.90
21830;DHT22;11077;50.264;6.798;2022-12-18T11:54:51;-2.70;99.90
21830;DHT22;11077;50.264;6.798;2022-12-18T11:57:32;-2.70;99.90
21830;DHT22;11077;50.264;6.798;2022-12-18T12:00:07;-2.60;99.90
21830;DHT22;11077;50.264;6.798;2022-12-18T12:02:54;-2.70;99.90
21830;DHT22;11077;50.264;6.798;2022-12-18T12:05:41;-2.70;99.90
21830;DHT22;11077;50.264;6.798;2022-12-18T12:08:17;-2.70;99.90
21830;DHT22;11077;50.264;6.798;2022-12-18T12:10:53;-2.70;99.90
21830;DHT22;11077;50.264;6.798;2022-12-18T12:13:43;-2.70;99.90
21830;DHT22;11077;50.264;6.798;2022-12-18T12:16:17;-2.80;99.90
21830;DHT22;11077;50.264;6.798;2022-12-18T12:19:03;-2.80;99.90
21830;DHT22;11077;50.264;6.798;2022-12-18T12:21:38;-2.80;99.90
21830;DHT22;11077;50.264;6.798;2022-12-18T12:24:20;-2.80;99.90
21830;DHT22;11077;50.264;6.798;2022-12-18T12:26:59;-2.80;99.90
21830;DHT22;11077;50.264;6.798;2022-12-18T12:29:38;-2.90;99.90
21830;DHT22;11077;50.264;6.798;2022-12-18T12:32:21;-2.90;99.90
21830;DHT22;11077;50.264;6.798;2022-12-18T12:34:59;-2.90;99.90
21830;DHT22;11077;50.264;6.798;2022-12-18T12:37:34;-2.90;99.90
21830;DHT22;11077;50.264;6.798;2022-12-18T12:40:05;-2.80;99.90
21830;DHT22;11077;50.264;6.798;2022-12-18T12:42:35;-2.90;99.90
21830;DHT22;11077;50.264;6.798;2022-12-18T12:45:30;-3.00;99.90
21830;DHT22;11077;50.264;6.798;2022-12-18T12:48:02;-2.90;99.90
21830;DHT22;11077;50.264;6.798;2022-12-18T12:50:34;-2.90;99.90
21830;DHT22;11077;50.264;6.798;2022-12-18T12:53:07;-2.90;99.90
21830;DHT22;11077;50.264;6.798;2022-12-18T12:55:35;-2.80;99.90
21830;DHT22;11077;50.264;6.798;2022-12-18T12:58:07;-2.80;99.90
21830;DHT22;11077;50.264;6.798;2022-12-18T13:00:52;-2.80;99.90
21830;DHT22;11077;50.264;6.798;2022-12-18T13:03:27;-2.90;99.90
21830;DHT22;11077;50.264;6.798;2022-12-18T13:06:02;-2.90;99.90
21830;DHT22;11077;50.264;6.798;2022-12-18T13:08:34;-2.80;99.90
21830;DHT22;11077;50.264;6.798;2022-12-18T13:11:30;-2.90;99.90
21830;DHT22;11077;50.264;6.798;2022-12-18T13:14:22;-2.90;99.90
21830;DHT22;11077;50.264;6.798;2022-12-18T13:16:51;-2.90;99.90
21830;DHT22;11077;50.264;6.798;2022-12-18T13:19:22;-2.80;99.90
21830;DHT22;11077;50.264;6.798;2022-12-18T13:21:55;-2.90;99.90
21830;DHT22;11077;50.264;6.798;2022-12-18T13:24:27;-2.90;99.90
21830;DHT22;11077;50.264;6.798;2022-12-18T13:26:58;-2.80;99.90
21830;DHT22;11077;50.264;6.798;2022-12-18T13:29:41;-2.80;99.90
21830;DHT22;11077;50.264;6.798;2022-12-18T13:32:23;-2.80;99.90
21830;DHT22;11077;50.264;6.798;2022-12-18T13:37:59;-2.80;99.90
21830;DHT22;11077;50.264;6.798;2022-12-18T13:40:54;-2.80;99.90
21830;DHT22;11077;50.264;6.798;2022-12-18T13:43:37;-2.90;99.90
21830;DHT22;11077;50.264;6.798;2022-12-18T13:46:21;-2.90;99.90
21830;DHT22;11077;50.264;6.798;2022-12-18T13:48:55;-2.90;99.90
21830;DHT22;11077;50.264;6.798;2022-12-18T13:51:24;-2.90;99.90
21830;DHT22;11077;50.264;6.798;2022-12-18T13:53:54;-2.80;99.90
21830;DHT22;11077;50.264;6.798;2022-12-18T13:56:24;-2.90;99.90
21830;DHT22;11077;50.264;6.798;2022-12-18T13:59:12;-2.90;99.90
21830;DHT22;11077;50.264;6.798;2022-12-18T14:01:44;-3.00;99.90
21830;DHT22;11077;50.264;6.798;2022-12-18T14:04:20;-2.90;99.90
21830;DHT22;11077;50.264;6.798;2022-12-18T14:06:50;-3.00;99.90
21830;DHT22;11077;50.264;6.798;2022-12-18T14:09:21;-3.00;99.90
21830;DHT22;11077;50.264;6.798;2022-12-18T14:11:50;-3.10;99.90
21830;DHT22;11077;50.264;6.798;2022-12-18T14:14:19;-3.00;99.90
21830;DHT22;11077;50.264;6.798;2022-12-18T14:16:47;-3.10;99.90
21830;DHT22;11077;50.264;6.798;2022-12-18T14:19:17;-3.10;99.90
21830;DHT22;11077;50.264;6.798;2022-12-18T14:21:48;-2.90;99.90
21830;DHT22;11077;50.264;6.798;2022-12-18T14:24:18;-3.00;99.90
21830;DHT22;11077;50.264;6.798;2022-12-18T14:26:48;-3.00;99.90
21830;DHT22;11077;50.264;6.798;2022-12-18T14:29:23;-3.00;99.90
21830;DHT22;11077;50.264;6.798;2022-12-18T14:32:08;-3.00;99.90
21830;DHT22;11077;50.264;6.798;2022-12-18T14:34:38;-3.10;99.90
21830;DHT22;11077;50.264;6.798;2022-12-18T14:37:09;-3.00;99.90
21830;DHT22;11077;50.264;6.798;2022-12-18T14:39:37;-3.20;99.90
21830;DHT22;11077;50.264;6.798;2022-12-18T14:42:04;-3.20;99.90
21830;DHT22;11077;50.264;6.798;2022-12-18T14:44:31;-3.10;99.90
21830;DHT22;11077;50.264;6.798;2022-12-18T14:46:59;-3.20;99.90
21830;DHT22;11077;50.264;6.798;2022-12-18T14:49:29;-3.20;99.90
21830;DHT22;11077;50.264;6.798;2022-12-18T14:52:02;-3.20;99.90
21830;DHT22;11077;50.264;6.798;2022-12-18T14:54:30;-3.20;99.90
21830;DHT22;11077;50.264;6.798;2022-12-18T14:57:00;-3.20;99.90
21830;DHT22;11077;50.264;6.798;2022-12-18T14:59:29;-3.20;99.90
21830;DHT22;11077;50.264;6.798;2022-12-18T15:02:00;-3.20;99.90
21830;DHT22;11077;50.264;6.798;2022-12-18T15:04:30;-3.20;99.90
21830;DHT22;11077;50.264;6.798;2022-12-18T15:07:21;-3.30;99.90
21830;DHT22;11077;50.264;6.798;2022-12-18T15:10:02;-3.30;99.90
21830;DHT22;11077;50.264;6.798;2022-12-18T15:12:37;-3.30;99.90
21830;DHT22;11077;50.264;6.798;2022-12-18T15:18:13;-3.40;99.90
21830;DHT22;11077;50.264;6.798;2022-12-18T15:20:44;-3.30;99.90
21830;DHT22;11077;50.264;6.798;2022-12-18T15:23:19;-3.30;99.90
21830;DHT22;11077;50.264;6.798;2022-12-18T15:25:48;-3.50;99.90
21830;DHT22;11077;50.264;6.798;2022-12-18T15:28:26;-3.50;99.90
21830;DHT22;11077;50.264;6.798;2022-12-18T15:31:06;-3.50;99.90
21830;DHT22;11077;50.264;6.798;2022-12-18T15:34:01;-3.50;99.90
21830;DHT22;11077;50.264;6.798;2022-12-18T15:36:29;-3.50;99.90
21830;DHT22;11077;50.264;6.798;2022-12-18T15:38:58;-3.60;99.90
21830;DHT22;11077;50.264;6.798;2022-12-18T15:41:25;-3.60;99.90
21830;DHT22;11077;50.264;6.798;2022-12-18T15:43:53;-3.70;99.90
21830;DHT22;11077;50.264;6.798;2022-12-18T15:46:20;-3.70;99.90
21830;DHT22;11077;50.264;6.798;2022-12-18T15:48:49;-3.70;99.90
21830;DHT22;11077;50.264;6.798;2022-12-18T15:51:18;-3.70;99.90
21830;DHT22;11077;50.264;6.798;2022-12-18T15:53:47;-3.80;99.90
21830;DHT22;11077;50.264;6.798;2022-12-18T15:56:17;-3.80;99.90
21830;DHT22;11077;50.264;6.798;2022-12-18T15:59:02;-3.80;99.90
21830;DHT22;11077;50.264;6.798;2022-12-18T16:01:30;-3.90;99.90